sensor_id;sensor_type;location;lat;lon;timestamp;P1;durP1;ratioP1;P2;durP2;ratioP2
6177;SDS011;3122;48.208;11.174;2023-03-01T00:04:34;32.80;;;17.87;;
6177;SDS011;3122;48.208;11.174;2023-03-01T00:09:36;45.97;;;24.30;;
6177;SDS011;3122;48.208;11.174;2023-03-01T00:14:37;37.17;;;19.60;;
6177;SDS011;3122;48.208;11.174;2023-03-01T00:19:37;157.17;;;56.17;;
6177;SDS011;3122;48.208;11.174;2023-03-01T00:24:38;118.30;;;49.30;;
6177;SDS011;3122;48.208;11.174;2023-03-01T00:29:39;52.77;;;26.00;;
6177;SDS011;3122;48.208;11.174;2023-03-01T00:34:39;85.77;;;33.73;;
6177;SDS011;3122;48.208;11.174;2023-03-01T00:39:40;59.07;;;26.93;;
6177;SDS011;3122;48.208;11.174;2023-03-01T00:44:41;52.13;;;24.80;;
6177;SDS011;3122;48.208;11.174;2023-03-01T00:49:42;58.70;;;30.90;;
6177;SDS011;3122;48.208;11.174;2023-03-01T00:54:43;41.80;;;23.73;;
6177;SDS011;3122;48.208;11.174;2023-03-01T00:59:43;41.40;;;23.30;;
6177;SDS011;3122;48.208;11.174;2023-03-01T01:04:44;29.37;;;16.40;;
6177;SDS011;3122;48.208;11.174;2023-03-01T01:09:45;31.30;;;17.20;;
6177;SDS011;3122;48.208;11.174;2023-03-01T01:14:46;32.63;;;17.83;;
6177;SDS011;3122;48.208;11.174;2023-03-01T01:19:46;34.07;;;17.10;;
6177;SDS011;3122;48.208;11.174;2023-03-01T01:24:47;32.53;;;17.80;;
6177;SDS011;3122;48.208;11.174;2023-03-01T01:29:47;30.20;;;17.17;;
6177;SDS011;3122;48.208;11.174;2023-03-01T01:34:48;31.43;;;18.40;;
6177;SDS011;3122;48.208;11.174;2023-03-01T01:39:49;28.00;;;15.60;;
6177;SDS011;3122;48.208;11.174;2023-03-01T01:45:15;27.07;;;15.73;;
6177;SDS011;3122;48.208;11.174;2023-03-01T01:50:28;28.63;;;16.03;;
6177;SDS011;3122;48.208;11.174;2023-03-01T01:55:39;24.40;;;14.23;;
6177;SDS011;3122;48.208;11.174;2023-03-01T02:00:42;28.90;;;15.53;;
6177;SDS011;3122;48.208;11.174;2023-03-01T02:05:47;26.13;;;15.70;;
6177;SDS011;3122;48.208;11.174;2023-03-01T02:11:13;28.47;;;15.50;;
6177;SDS011;3122;48.208;11.174;2023-03-01T02:16:16;26.63;;;15.50;;
6177;SDS011;3122;48.208;11.174;2023-03-01T02:21:23;29.37;;;15.97;;
6177;SDS011;3122;48.208;11.174;2023-03-01T02:26:40;30.60;;;16.30;;
6177;SDS011;3122;48.208;11.174;2023-03-01T02:31:46;32.80;;;17.63;;
6177;SDS011;3122;48.208;11.174;2023-03-01T02:36:55;30.27;;;15.90;;
6177;SDS011;3122;48.208;11.174;2023-03-01T02:42:05;30.03;;;17.03;;
6177;SDS011;3122;48.208;11.174;2023-03-01T02:47:06;26.80;;;15.37;;
6177;SDS011;3122;48.208;11.174;2023-03-01T02:57:21;29.27;;;16.10;;
6177;SDS011;3122;48.208;11.174;2023-03-01T03:02:25;29.33;;;15.53;;
6177;SDS011;3122;48.208;11.174;2023-03-01T03:07:37;29.53;;;15.40;;
6177;SDS011;3122;48.208;11.174;2023-03-01T03:12:39;28.97;;;15.80;;
6177;SDS011;3122;48.208;11.174;2023-03-01T03:17:41;27.27;;;16.40;;
6177;SDS011;3122;48.208;11.174;2023-03-01T03:22:42;31.80;;;17.27;;
6177;SDS011;3122;48.208;11.174;2023-03-01T03:27:43;26.07;;;15.13;;
6177;SDS011;3122;48.208;11.174;2023-03-01T03:32:46;27.50;;;15.57;;
6177;SDS011;3122;48.208;11.174;2023-03-01T03:37:53;29.77;;;15.70;;
6177;SDS011;3122;48.208;11.174;2023-03-01T03:43:03;27.20;;;16.57;;
6177;SDS011;3122;48.208;11.174;2023-03-01T03:48:06;28.47;;;16.10;;
6177;SDS011;3122;48.208;11.174;2023-03-01T03:53:10;28.73;;;15.63;;
6177;SDS011;3122;48.208;11.174;2023-03-01T03:58:11;29.23;;;15.80;;
6177;SDS011;3122;48.208;11.174;2023-03-01T04:03:13;28.50;;;16.37;;
6177;SDS011;3122;48.208;11.174;2023-03-01T04:08:16;31.83;;;16.50;;
6177;SDS011;3122;48.208;11.174;2023-03-01T04:13:21;26.03;;;15.50;;
6177;SDS011;3122;48.208;11.174;2023-03-01T04:18:23;27.80;;;16.07;;
6177;SDS011;3122;48.208;11.174;2023-03-01T04:23:25;30.90;;;15.83;;
6177;SDS011;3122;48.208;11.174;2023-03-01T04:28:29;27.13;;;15.10;;
6177;SDS011;3122;48.208;11.174;2023-03-01T04:33:34;27.00;;;15.57;;
6177;SDS011;3122;48.208;11.174;2023-03-01T04:38:35;30.87;;;16.03;;
6177;SDS011;3122;48.208;11.174;2023-03-01T04:43:38;34.53;;;16.40;;
6177;SDS011;3122;48.208;11.174;2023-03-01T04:48:39;29.17;;;16.03;;
6177;SDS011;3122;48.208;11.174;2023-03-01T04:53:42;30.10;;;16.23;;
6177;SDS011;3122;48.208;11.174;2023-03-01T04:58:43;30.63;;;16.10;;
6177;SDS011;3122;48.208;11.174;2023-03-01T05:03:45;32.03;;;15.87;;
6177;SDS011;3122;48.208;11.174;2023-03-01T05:08:50;28.70;;;16.40;;
6177;SDS011;3122;48.208;11.174;2023-03-01T05:13:51;31.20;;;16.07;;
6177;SDS011;3122;48.208;11.174;2023-03-01T05:18:54;30.63;;;16.60;;
6177;SDS011;3122;48.208;11.174;2023-03-01T05:23:56;30.57;;;15.80;;
6177;SDS011;3122;48.208;11.174;2023-03-01T05:28:57;31.80;;;17.03;;
6177;SDS011;3122;48.208;11.174;2023-03-01T05:33:58;30.60;;;17.37;;
6177;SDS011;3122;48.208;11.174;2023-03-01T05:38:59;29.20;;;16.37;;
6177;SDS011;3122;48.208;11.174;2023-03-01T05:43:59;31.37;;;15.47;;
6177;SDS011;3122;48.208;11.174;2023-03-01T05:49:00;29.47;;;15.90;;
6177;SDS011;3122;48.208;11.174;2023-03-01T05:54:02;33.97;;;17.40;;
6177;SDS011;3122;48.208;11.174;2023-03-01T05:59:06;29.30;;;15.70;;
6177;SDS011;3122;48.208;11.174;2023-03-01T06:04:07;34.00;;;17.07;;
6177;SDS011;3122;48.208;11.174;2023-03-01T06:09:08;30.30;;;16.93;;
6177;SDS011;3122;48.208;11.174;2023-03-01T06:14:09;28.80;;;15.87;;
6177;SDS011;3122;48.208;11.174;2023-03-01T06:19:12;30.13;;;16.37;;
6177;SDS011;3122;48.208;11.174;2023-03-01T06:24:13;30.10;;;16.13;;
6177;SDS011;3122;48.208;11.174;2023-03-01T06:29:13;32.67;;;17.50;;
6177;SDS011;3122;48.208;11.174;2023-03-01T06:34:14;34.37;;;16.47;;
6177;SDS011;3122;48.208;11.174;2023-03-01T06:39:15;31.60;;;16.90;;
6177;SDS011;3122;48.208;11.174;2023-03-01T06:44:17;30.27;;;16.63;;
6177;SDS011;3122;48.208;11.174;2023-03-01T06:49:18;30.83;;;16.33;;
6177;SDS011;3122;48.208;11.174;2023-03-01T06:54:19;30.13;;;16.07;;
6177;SDS011;3122;48.208;11.174;2023-03-01T06:59:22;31.10;;;17.03;;
6177;SDS011;3122;48.208;11.174;2023-03-01T07:04:22;28.27;;;15.97;;
6177;SDS011;3122;48.208;11.174;2023-03-01T07:09:23;31.90;;;16.10;;
6177;SDS011;3122;48.208;11.174;2023-03-01T07:14:24;31.63;;;16.93;;
6177;SDS011;3122;48.208;11.174;2023-03-01T07:19:25;30.10;;;16.47;;
6177;SDS011;3122;48.208;11.174;2023-03-01T07:24:26;31.27;;;16.37;;
6177;SDS011;3122;48.208;11.174;2023-03-01T07:29:27;31.17;;;15.53;;
6177;SDS011;3122;48.208;11.174;2023-03-01T07:34:28;29.80;;;16.30;;
6177;SDS011;3122;48.208;11.174;2023-03-01T07:39:29;27.77;;;15.43;;
6177;SDS011;3122;48.208;11.174;2023-03-01T07:44:29;29.00;;;15.60;;
6177;SDS011;3122;48.208;11.174;2023-03-01T07:49:30;32.53;;;17.37;;
6177;SDS011;3122;48.208;11.174;2023-03-01T07:54:31;31.00;;;16.90;;
6177;SDS011;3122;48.208;11.174;2023-03-01T07:59:31;32.23;;;17.00;;
6177;SDS011;3122;48.208;11.174;2023-03-01T08:04:33;34.60;;;17.23;;
6177;SDS011;3122;48.208;11.174;2023-03-01T08:09:34;30.33;;;16.80;;
6177;SDS011;3122;48.208;11.174;2023-03-01T08:14:36;36.47;;;17.43;;
6177;SDS011;3122;48.208;11.174;2023-03-01T08:19:37;31.77;;;16.00;;
6177;SDS011;3122;48.208;11.174;2023-03-01T08:24:38;30.73;;;16.90;;
6177;SDS011;3122;48.208;11.174;2023-03-01T08:29:38;30.20;;;15.80;;
6177;SDS011;3122;48.208;11.174;2023-03-01T08:34:39;32.87;;;17.60;;
6177;SDS011;3122;48.208;11.174;2023-03-01T08:39:39;30.20;;;17.03;;
6177;SDS011;3122;48.208;11.174;2023-03-01T08:44:40;33.10;;;17.23;;
6177;SDS011;3122;48.208;11.174;2023-03-01T08:49:40;37.10;;;17.73;;
6177;SDS011;3122;48.208;11.174;2023-03-01T08:54:41;33.33;;;16.53;;
6177;SDS011;3122;48.208;11.174;2023-03-01T08:59:41;31.10;;;18.40;;
6177;SDS011;3122;48.208;11.174;2023-03-01T09:04:42;32.60;;;17.50;;
6177;SDS011;3122;48.208;11.174;2023-03-01T09:09:44;33.30;;;17.27;;
6177;SDS011;3122;48.208;11.174;2023-03-01T09:14:44;39.60;;;17.93;;
6177;SDS011;3122;48.208;11.174;2023-03-01T09:19:45;32.37;;;16.40;;
6177;SDS011;3122;48.208;11.174;2023-03-01T09:24:45;34.13;;;16.93;;
6177;SDS011;3122;48.208;11.174;2023-03-01T09:29:46;34.63;;;18.20;;
6177;SDS011;3122;48.208;11.174;2023-03-01T09:34:47;42.83;;;20.20;;
6177;SDS011;3122;48.208;11.174;2023-03-01T09:40:06;36.50;;;17.83;;
6177;SDS011;3122;48.208;11.174;2023-03-01T09:45:37;38.03;;;17.30;;
6177;SDS011;3122;48.208;11.174;2023-03-01T09:50:39;33.63;;;17.90;;
6177;SDS011;3122;48.208;11.174;2023-03-01T09:55:43;39.37;;;18.30;;
6177;SDS011;3122;48.208;11.174;2023-03-01T10:01:48;32.47;;;16.83;;
6177;SDS011;3122;48.208;11.174;2023-03-01T10:06:38;35.80;;;18.17;;
6177;SDS011;3122;48.208;11.174;2023-03-01T10:11:48;35.53;;;18.07;;
6177;SDS011;3122;48.208;11.174;2023-03-01T10:16:53;36.23;;;18.10;;
6177;SDS011;3122;48.208;11.174;2023-03-01T10:22:40;30.63;;;16.63;;
6177;SDS011;3122;48.208;11.174;2023-03-01T10:32:44;34.93;;;17.77;;
6177;SDS011;3122;48.208;11.174;2023-03-01T10:43:10;29.90;;;16.60;;
6177;SDS011;3122;48.208;11.174;2023-03-01T10:58:29;31.10;;;16.97;;
6177;SDS011;3122;48.208;11.174;2023-03-01T11:03:34;31.97;;;17.90;;
6177;SDS011;3122;48.208;11.174;2023-03-01T11:08:41;41.60;;;20.17;;
6177;SDS011;3122;48.208;11.174;2023-03-01T11:13:50;35.53;;;19.13;;
6177;SDS011;3122;48.208;11.174;2023-03-01T11:18:57;40.53;;;20.57;;
6177;SDS011;3122;48.208;11.174;2023-03-01T11:24:00;35.00;;;19.77;;
6177;SDS011;3122;48.208;11.174;2023-03-01T11:29:04;39.53;;;21.07;;
6177;SDS011;3122;48.208;11.174;2023-03-01T11:34:12;36.37;;;20.33;;
6177;SDS011;3122;48.208;11.174;2023-03-01T11:44:26;35.00;;;20.23;;
6177;SDS011;3122;48.208;11.174;2023-03-01T11:54:54;36.73;;;21.13;;
6177;SDS011;3122;48.208;11.174;2023-03-01T12:05:24;37.70;;;21.10;;
6177;SDS011;3122;48.208;11.174;2023-03-01T12:27:15;36.77;;;19.90;;
6177;SDS011;3122;48.208;11.174;2023-03-01T12:37:40;32.87;;;19.37;;
6177;SDS011;3122;48.208;11.174;2023-03-01T12:42:53;31.97;;;18.67;;
6177;SDS011;3122;48.208;11.174;2023-03-01T12:58:33;33.90;;;18.87;;
6177;SDS011;3122;48.208;11.174;2023-03-01T13:19:33;33.80;;;19.70;;
6177;SDS011;3122;48.208;11.174;2023-03-01T13:24:37;32.07;;;18.37;;
6177;SDS011;3122;48.208;11.174;2023-03-01T13:34:53;31.87;;;18.40;;
6177;SDS011;3122;48.208;11.174;2023-03-01T13:40:00;35.07;;;19.47;;
6177;SDS011;3122;48.208;11.174;2023-03-01T13:50:25;34.60;;;19.17;;
6177;SDS011;3122;48.208;11.174;2023-03-01T13:55:43;36.33;;;21.00;;
6177;SDS011;3122;48.208;11.174;2023-03-01T14:00:46;34.63;;;19.03;;
6177;SDS011;3122;48.208;11.174;2023-03-01T14:06:03;30.77;;;18.10;;
6177;SDS011;3122;48.208;11.174;2023-03-01T14:11:35;33.10;;;19.17;;
6177;SDS011;3122;48.208;11.174;2023-03-01T14:17:05;32.60;;;18.57;;
6177;SDS011;3122;48.208;11.174;2023-03-01T14:22:34;31.20;;;19.07;;
6177;SDS011;3122;48.208;11.174;2023-03-01T14:27:37;32.67;;;18.00;;
6177;SDS011;3122;48.208;11.174;2023-03-01T14:32:42;28.50;;;17.33;;
6177;SDS011;3122;48.208;11.174;2023-03-01T14:37:42;27.53;;;16.70;;
6177;SDS011;3122;48.208;11.174;2023-03-01T14:42:43;27.97;;;16.80;;
6177;SDS011;3122;48.208;11.174;2023-03-01T14:47:43;28.43;;;16.57;;
6177;SDS011;3122;48.208;11.174;2023-03-01T14:52:46;27.00;;;17.33;;
6177;SDS011;3122;48.208;11.174;2023-03-01T14:57:49;30.20;;;16.43;;
6177;SDS011;3122;48.208;11.174;2023-03-01T15:02:52;31.83;;;17.70;;
6177;SDS011;3122;48.208;11.174;2023-03-01T15:07:53;32.77;;;17.00;;
6177;SDS011;3122;48.208;11.174;2023-03-01T15:12:55;29.87;;;16.33;;
6177;SDS011;3122;48.208;11.174;2023-03-01T15:18:00;26.37;;;15.97;;
6177;SDS011;3122;48.208;11.174;2023-03-01T15:23:03;31.50;;;17.23;;
6177;SDS011;3122;48.208;11.174;2023-03-01T15:28:04;28.30;;;15.70;;
6177;SDS011;3122;48.208;11.174;2023-03-01T15:38:24;29.00;;;15.77;;
6177;SDS011;3122;48.208;11.174;2023-03-01T15:43:39;30.37;;;16.67;;
6177;SDS011;3122;48.208;11.174;2023-03-01T15:48:44;25.30;;;15.13;;
6177;SDS011;3122;48.208;11.174;2023-03-01T15:53:52;26.70;;;16.70;;
6177;SDS011;3122;48.208;11.174;2023-03-01T15:58:56;27.33;;;15.67;;
6177;SDS011;3122;48.208;11.174;2023-03-01T16:03:58;27.23;;;15.27;;
6177;SDS011;3122;48.208;11.174;2023-03-01T16:08:58;24.23;;;15.17;;
6177;SDS011;3122;48.208;11.174;2023-03-01T16:13:59;26.87;;;15.50;;
6177;SDS011;3122;48.208;11.174;2023-03-01T16:18:59;24.27;;;13.90;;
6177;SDS011;3122;48.208;11.174;2023-03-01T16:24:00;24.27;;;14.50;;
6177;SDS011;3122;48.208;11.174;2023-03-01T16:29:01;31.20;;;15.50;;
6177;SDS011;3122;48.208;11.174;2023-03-01T16:34:02;25.60;;;14.77;;
6177;SDS011;3122;48.208;11.174;2023-03-01T16:39:03;26.93;;;14.90;;
6177;SDS011;3122;48.208;11.174;2023-03-01T16:44:03;23.67;;;14.63;;
6177;SDS011;3122;48.208;11.174;2023-03-01T16:49:04;22.27;;;13.70;;
6177;SDS011;3122;48.208;11.174;2023-03-01T16:54:05;23.73;;;13.00;;
6177;SDS011;3122;48.208;11.174;2023-03-01T16:59:06;19.73;;;12.40;;
6177;SDS011;3122;48.208;11.174;2023-03-01T17:04:09;22.93;;;14.00;;
6177;SDS011;3122;48.208;11.174;2023-03-01T17:09:11;20.67;;;13.63;;
6177;SDS011;3122;48.208;11.174;2023-03-01T17:14:12;24.90;;;13.90;;
6177;SDS011;3122;48.208;11.174;2023-03-01T17:19:12;21.53;;;12.70;;
6177;SDS011;3122;48.208;11.174;2023-03-01T17:24:17;20.67;;;13.00;;
6177;SDS011;3122;48.208;11.174;2023-03-01T17:29:18;19.60;;;12.47;;
6177;SDS011;3122;48.208;11.174;2023-03-01T17:34:18;26.53;;;16.17;;
6177;SDS011;3122;48.208;11.174;2023-03-01T17:39:19;28.27;;;15.93;;
6177;SDS011;3122;48.208;11.174;2023-03-01T17:44:24;31.60;;;17.27;;
6177;SDS011;3122;48.208;11.174;2023-03-01T17:49:25;34.37;;;19.13;;
6177;SDS011;3122;48.208;11.174;2023-03-01T17:54:26;26.63;;;15.70;;
6177;SDS011;3122;48.208;11.174;2023-03-01T17:59:26;23.63;;;14.60;;
6177;SDS011;3122;48.208;11.174;2023-03-01T18:04:32;21.97;;;12.77;;
6177;SDS011;3122;48.208;11.174;2023-03-01T18:09:33;22.53;;;13.70;;
6177;SDS011;3122;48.208;11.174;2023-03-01T18:14:33;25.63;;;13.93;;
6177;SDS011;3122;48.208;11.174;2023-03-01T18:19:34;24.67;;;13.43;;
6177;SDS011;3122;48.208;11.174;2023-03-01T18:24:35;22.63;;;13.83;;
6177;SDS011;3122;48.208;11.174;2023-03-01T18:29:36;20.87;;;12.17;;
6177;SDS011;3122;48.208;11.174;2023-03-01T18:34:37;26.37;;;15.33;;
6177;SDS011;3122;48.208;11.174;2023-03-01T18:39:37;30.40;;;16.87;;
6177;SDS011;3122;48.208;11.174;2023-03-01T18:44:40;27.27;;;15.07;;
6177;SDS011;3122;48.208;11.174;2023-03-01T18:49:41;34.00;;;18.73;;
6177;SDS011;3122;48.208;11.174;2023-03-01T18:54:41;38.40;;;21.77;;
6177;SDS011;3122;48.208;11.174;2023-03-01T18:59:42;41.93;;;19.50;;
6177;SDS011;3122;48.208;11.174;2023-03-01T19:04:42;40.70;;;20.87;;
6177;SDS011;3122;48.208;11.174;2023-03-01T19:09:43;43.33;;;23.43;;
6177;SDS011;3122;48.208;11.174;2023-03-01T19:14:43;41.43;;;21.80;;
6177;SDS011;3122;48.208;11.174;2023-03-01T19:19:44;38.97;;;21.10;;
6177;SDS011;3122;48.208;11.174;2023-03-01T19:24:45;50.20;;;25.20;;
6177;SDS011;3122;48.208;11.174;2023-03-01T19:29:45;50.27;;;26.77;;
6177;SDS011;3122;48.208;11.174;2023-03-01T19:34:46;52.10;;;25.17;;
6177;SDS011;3122;48.208;11.174;2023-03-01T19:39:46;39.57;;;22.60;;
6177;SDS011;3122;48.208;11.174;2023-03-01T19:44:47;41.07;;;23.47;;
6177;SDS011;3122;48.208;11.174;2023-03-01T19:49:47;45.80;;;24.00;;
6177;SDS011;3122;48.208;11.174;2023-03-01T19:54:48;44.50;;;22.90;;
6177;SDS011;3122;48.208;11.174;2023-03-01T19:59:49;42.80;;;23.50;;
6177;SDS011;3122;48.208;11.174;2023-03-01T20:04:49;42.47;;;23.13;;
6177;SDS011;3122;48.208;11.174;2023-03-01T20:09:50;46.67;;;25.80;;
6177;SDS011;3122;48.208;11.174;2023-03-01T20:14:50;48.93;;;25.13;;
6177;SDS011;3122;48.208;11.174;2023-03-01T20:19:54;39.67;;;23.47;;
6177;SDS011;3122;48.208;11.174;2023-03-01T20:24:54;37.30;;;19.97;;
6177;SDS011;3122;48.208;11.174;2023-03-01T20:29:55;33.57;;;20.53;;
6177;SDS011;3122;48.208;11.174;2023-03-01T20:34:56;35.40;;;20.13;;
6177;SDS011;3122;48.208;11.174;2023-03-01T20:39:56;39.40;;;19.77;;
6177;SDS011;3122;48.208;11.174;2023-03-01T20:44:57;37.83;;;21.03;;
6177;SDS011;3122;48.208;11.174;2023-03-01T20:49:57;38.97;;;20.53;;
6177;SDS011;3122;48.208;11.174;2023-03-01T20:55:00;32.23;;;18.03;;
6177;SDS011;3122;48.208;11.174;2023-03-01T21:00:01;31.63;;;17.57;;
6177;SDS011;3122;48.208;11.174;2023-03-01T21:05:04;36.03;;;18.37;;
6177;SDS011;3122;48.208;11.174;2023-03-01T21:10:05;41.73;;;19.47;;
6177;SDS011;3122;48.208;11.174;2023-03-01T21:15:06;37.33;;;18.57;;
6177;SDS011;3122;48.208;11.174;2023-03-01T21:20:07;34.93;;;19.23;;
6177;SDS011;3122;48.208;11.174;2023-03-01T21:25:08;34.43;;;18.60;;
6177;SDS011;3122;48.208;11.174;2023-03-01T21:30:09;29.40;;;17.60;;
6177;SDS011;3122;48.208;11.174;2023-03-01T21:35:10;33.10;;;17.10;;
6177;SDS011;3122;48.208;11.174;2023-03-01T21:40:11;37.10;;;17.87;;
6177;SDS011;3122;48.208;11.174;2023-03-01T21:45:12;27.20;;;16.00;;
6177;SDS011;3122;48.208;11.174;2023-03-01T21:50:12;30.57;;;15.00;;
6177;SDS011;3122;48.208;11.174;2023-03-01T21:55:13;25.93;;;15.60;;
6177;SDS011;3122;48.208;11.174;2023-03-01T22:00:14;27.07;;;14.63;;
6177;SDS011;3122;48.208;11.174;2023-03-01T22:05:17;26.10;;;15.10;;
6177;SDS011;3122;48.208;11.174;2023-03-01T22:10:17;25.70;;;14.60;;
6177;SDS011;3122;48.208;11.174;2023-03-01T22:15:26;27.63;;;15.00;;
6177;SDS011;3122;48.208;11.174;2023-03-01T22:20:26;26.63;;;14.07;;
6177;SDS011;3122;48.208;11.174;2023-03-01T22:25:27;25.27;;;13.40;;
6177;SDS011;3122;48.208;11.174;2023-03-01T22:30:28;48.27;;;21.20;;
6177;SDS011;3122;48.208;11.174;2023-03-01T22:35:29;72.73;;;29.30;;
6177;SDS011;3122;48.208;11.174;2023-03-01T22:40:37;150.37;;;51.07;;
6177;SDS011;3122;48.208;11.174;2023-03-01T22:45:40;98.53;;;33.90;;
6177;SDS011;3122;48.208;11.174;2023-03-01T22:50:41;87.37;;;34.00;;
6177;SDS011;3122;48.208;11.174;2023-03-01T22:55:43;109.80;;;38.83;;
6177;SDS011;3122;48.208;11.174;2023-03-01T23:00:44;144.73;;;45.27;;
6177;SDS011;3122;48.208;11.174;2023-03-01T23:05:44;93.53;;;35.77;;
6177;SDS011;3122;48.208;11.174;2023-03-01T23:10:45;112.50;;;39.47;;
6177;SDS011;3122;48.208;11.174;2023-03-01T23:15:51;74.33;;;33.83;;
6177;SDS011;3122;48.208;11.174;2023-03-01T23:20:55;66.37;;;29.47;;
6177;SDS011;3122;48.208;11.174;2023-03-01T23:25:56;59.17;;;28.10;;
6177;SDS011;3122;48.208;11.174;2023-03-01T23:30:58;69.70;;;29.33;;
6177;SDS011;3122;48.208;11.174;2023-03-01T23:36:00;63.63;;;32.37;;
6177;SDS011;3122;48.208;11.174;2023-03-01T23:41:01;76.47;;;34.37;;
6177;SDS011;3122;48.208;11.174;2023-03-01T23:46:02;90.87;;;36.83;;
6177;SDS011;3122;48.208;11.174;2023-03-01T23:51:03;92.93;;;35.93;;
6177;SDS011;3122;48.208;11.174;2023-03-01T23:56:04;71.90;;;29.50;;
